Time;durP1;ratioP1;P1;durP2;ratioP2;P2;SDS_P1;SDS_P2;PMS_P1;PMS_P2;Temp;Humidity;BMP_temperature;BMP_pressure;BME280_temperature;BME280_humidity;BME280_pressure;Samples;Min_cycle;Max_cycle;Signal;HPM_P1;HPM_P2
2022/09/27 00:00:32;;;;;;;73.50;26.07;;;11.50;99.90;;;;;;5017657;28;20217;-85
2022/09/27 00:02:57;;;;;;;71.50;20.10;;;11.50;99.90;;;;;;5035058;28;20161;-85
2022/09/27 00:05:23;;;;;;;72.90;28.40;;;11.50;99.90;;;;;;5035646;28;20400;-85
2022/09/27 00:07:49;;;;;;;71.47;24.93;;;11.50;99.90;;;;;;5035714;28;20212;-85
2022/09/27 00:10:15;;;;;;;73.33;29.10;;;11.50;99.90;;;;;;5017388;28;20176;-85
2022/09/27 00:12:41;;;;;;;72.82;26.17;;;11.50;99.90;;;;;;5035664;28;20556;-85
2022/09/27 00:15:08;;;;;;;72.68;24.85;;;11.50;99.90;;;;;;5036424;28;20230;-85
2022/09/27 00:17:35;;;;;;;72.88;23.00;;;11.50;99.90;;;;;;5037313;28;20183;-85
2022/09/27 00:20:02;;;;;;;75.07;26.92;;;11.50;99.90;;;;;;5019744;28;20620;-85
2022/09/27 00:22:28;;;;;;;74.05;27.70;;;11.50;99.90;;;;;;5037739;28;20521;-85
2022/09/27 00:24:54;;;;;;;73.17;21.87;;;11.40;99.90;;;;;;5037091;28;20165;-85
2022/09/27 00:27:20;;;;;;;72.07;24.70;;;11.40;99.90;;;;;;5019143;28;20202;-85
2022/09/27 00:29:46;;;;;;;78.57;25.07;;;11.40;99.90;;;;;;5038938;28;20197;-85
2022/09/27 00:32:13;;;;;;;71.72;21.92;;;11.40;99.90;;;;;;5039325;28;20440;-85
2022/09/27 00:34:39;;;;;;;72.45;25.88;;;11.40;99.90;;;;;;5021473;28;20173;-85
2022/09/27 00:37:06;;;;;;;70.68;22.02;;;11.40;99.90;;;;;;5022097;28;20200;-86
2022/09/27 00:39:32;;;;;;;74.65;22.13;;;11.40;99.90;;;;;;5022061;28;20197;-85
2022/09/27 00:41:58;;;;;;;75.47;24.67;;;11.50;99.90;;;;;;5039031;28;20293;-86
2022/09/27 00:44:27;;;;;;;71.97;24.90;;;11.50;99.90;;;;;;5021398;28;20172;-86
2022/09/27 00:47:05;;;;;;;73.55;21.30;;;11.50;99.90;;;;;;5038850;28;20157;-86
2022/09/27 00:49:43;;;;;;;72.85;23.23;;;11.50;99.90;;;;;;5022794;28;20189;-86
2022/09/27 00:52:19;;;;;;;71.40;23.55;;;11.50;99.90;;;;;;5023572;28;20168;-86
2022/09/27 00:54:49;;;;;;;72.07;20.65;;;11.40;99.90;;;;;;5023725;28;20232;-86
2022/09/27 00:57:16;;;;;;;70.70;21.75;;;11.40;99.90;;;;;;5042253;28;20233;-85
2022/09/27 00:59:46;;;;;;;73.93;24.73;;;11.30;99.90;;;;;;5041384;28;20208;-86
2022/09/27 01:02:13;;;;;;;69.45;17.60;;;11.30;99.90;;;;;;5041953;28;20177;-86
2022/09/27 01:04:39;;;;;;;72.63;24.45;;;11.30;99.90;;;;;;5022861;28;20173;-86
2022/09/27 01:07:06;;;;;;;70.50;20.08;;;11.30;99.90;;;;;;5039435;28;20529;-85
2022/09/27 01:09:33;;;;;;;70.40;21.73;;;11.30;99.90;;;;;;5041242;28;20176;-86
2022/09/27 01:12:19;;;;;;;72.88;24.27;;;11.30;99.90;;;;;;5007353;28;20184;-85
2022/09/27 01:14:51;;;;;;;71.55;17.65;;;11.20;99.90;;;;;;5040390;28;20190;-85
2022/09/27 01:17:43;;;;;;;69.68;17.85;;;11.10;99.90;;;;;;5039783;28;20165;-86
2022/09/27 01:20:09;;;;;;;71.20;22.13;;;11.10;99.90;;;;;;5040077;28;20189;-85
2022/09/27 01:23:04;;;;;;;70.53;19.27;;;11.20;99.90;;;;;;5041375;28;20175;-85
2022/09/27 01:25:48;;;;;;;69.47;17.60;;;11.10;99.90;;;;;;5020944;28;20719;-85
2022/09/27 01:28:35;;;;;;;76.85;18.70;;;11.10;99.90;;;;;;5037996;28;20240;-85
2022/09/27 01:31:24;;;;;;;71.45;19.27;;;11.10;99.90;;;;;;5021007;28;20165;-86
2022/09/27 01:33:56;;;;;;;71.05;17.70;;;11.10;99.90;;;;;;5015042;28;20169;-86
2022/09/27 01:36:26;;;;;;;72.70;19.38;;;11.10;99.90;;;;;;5020810;28;20176;-87
2022/09/27 01:39:07;;;;;;;71.57;15.77;;;11.10;99.90;;;;;;5039039;28;20669;-85
2022/09/27 01:41:49;;;;;;;72.28;15.63;;;11.10;99.90;;;;;;5037784;28;20180;-85
2022/09/27 01:44:31;;;;;;;72.60;20.00;;;11.20;99.90;;;;;;5019806;28;20169;-86
2022/09/27 01:47:10;;;;;;;70.88;15.40;;;11.20;99.90;;;;;;5042020;28;20149;-84
2022/09/27 01:50:01;;;;;;;72.22;17.42;;;11.20;99.90;;;;;;5024422;28;20266;-85
2022/09/27 01:52:49;;;;;;;70.97;15.45;;;11.20;99.90;;;;;;5040920;28;20153;-84
2022/09/27 01:55:18;;;;;;;73.90;20.10;;;11.20;99.90;;;;;;4974951;28;1513370;-84
2022/09/27 01:58:02;;;;;;;74.97;30.27;;;11.20;99.90;;;;;;5045632;28;20189;-84
2022/09/27 02:00:28;;;;;;;72.97;18.08;;;11.20;99.90;;;;;;5044050;28;20288;-84
2022/09/27 02:03:32;;;;;;;78.05;17.98;;;11.10;99.90;;;;;;5042006;28;20158;-84
2022/09/27 02:06:14;;;;;;;72.05;18.60;;;11.10;99.90;;;;;;5022888;28;20173;-85
2022/09/27 02:08:50;;;;;;;73.88;19.77;;;11.10;99.90;;;;;;5041808;28;20264;-85
2022/09/27 02:11:15;;;;;;;78.20;21.08;;;11.10;99.90;;;;;;5022272;28;20545;-85
2022/09/27 02:13:57;;;;;;;72.77;18.90;;;11.10;99.90;;;;;;5040125;28;20157;-85
2022/09/27 02:16:40;;;;;;;79.75;19.38;;;11.10;99.90;;;;;;5022797;28;20887;-85
2022/09/27 02:19:09;;;;;;;76.82;21.27;;;11.20;99.90;;;;;;5020569;28;20212;-85
2022/09/27 02:22:08;;;;;;;75.63;19.35;;;11.20;99.90;;;;;;5037729;28;20667;-84
2022/09/27 02:24:45;;;;;;;73.43;14.55;;;11.20;99.90;;;;;;5038822;28;20170;-84
2022/09/27 02:27:33;;;;;;;75.15;16.10;;;11.20;99.90;;;;;;5040935;28;20228;-85
2022/09/27 02:30:07;;;;;;;75.57;17.27;;;11.20;99.90;;;;;;5024780;28;20181;-85
2022/09/27 02:32:33;;;;;;;75.07;15.30;;;11.10;99.90;;;;;;5043096;28;20165;-86
2022/09/27 02:35:04;;;;;;;75.57;17.17;;;11.10;99.90;;;;;;5042701;28;20165;-86
2022/09/27 02:37:31;;;;;;;75.38;20.42;;;11.10;99.90;;;;;;5021146;28;20661;-85
2022/09/27 02:39:57;;;;;;;77.78;16.13;;;11.10;99.90;;;;;;5035884;28;20197;-86
2022/09/27 02:42:24;;;;;;;73.20;14.32;;;11.10;99.90;;;;;;5035728;28;20162;-85
2022/09/27 02:44:50;;;;;;;73.40;19.13;;;11.10;99.90;;;;;;5019809;28;20200;-87
2022/09/27 02:47:37;;;;;;;72.40;14.50;;;11.10;99.90;;;;;;5042139;28;20165;-87
2022/09/27 02:50:19;;;;;;;70.82;17.40;;;11.10;99.90;;;;;;5042235;28;20755;-87
2022/09/27 02:53:06;;;;;;;70.13;17.08;;;11.10;99.90;;;;;;5023166;28;20186;-87
2022/09/27 02:55:51;;;;;;;71.32;20.60;;;11.00;99.90;;;;;;5022103;28;20212;-86
2022/09/27 02:58:28;;;;;;;71.30;18.92;;;10.90;99.90;;;;;;5020504;28;20216;-87
2022/09/27 03:01:12;;;;;;;73.55;23.10;;;10.90;99.90;;;;;;5021570;28;20652;-86
2022/09/27 03:03:59;;;;;;;70.70;17.77;;;10.90;99.90;;;;;;5020623;28;20240;-87
2022/09/27 03:06:26;;;;;;;71.03;20.05;;;10.90;99.90;;;;;;5019474;28;20177;-88
2022/09/27 03:08:52;;;;;;;69.38;17.25;;;10.80;99.90;;;;;;5020729;28;20189;-86
2022/09/27 03:11:18;;;;;;;71.53;17.83;;;10.80;99.90;;;;;;5037855;28;20514;-87
2022/09/27 03:13:44;;;;;;;71.30;17.60;;;10.80;99.90;;;;;;5019946;28;20204;-86
2022/09/27 03:16:10;;;;;;;69.32;15.75;;;10.90;99.90;;;;;;5037287;28;20169;-87
2022/09/27 03:18:36;;;;;;;71.70;17.55;;;10.80;99.90;;;;;;5036512;28;20185;-87
2022/09/27 03:21:02;;;;;;;69.67;17.90;;;10.80;99.90;;;;;;5018714;28;20173;-86
2022/09/27 03:23:28;;;;;;;69.67;16.83;;;10.70;99.90;;;;;;5019138;28;20161;-86
2022/09/27 03:25:54;;;;;;;68.90;15.65;;;10.80;99.90;;;;;;5036429;28;20640;-86
2022/09/27 03:28:20;;;;;;;71.50;17.87;;;10.70;99.90;;;;;;5020289;28;20260;-86
2022/09/27 03:30:46;;;;;;;68.18;16.02;;;10.70;99.90;;;;;;5020078;28;20168;-86
2022/09/27 03:33:12;;;;;;;68.40;14.50;;;10.70;99.90;;;;;;5036281;28;20176;-86
2022/09/27 03:35:40;;;;;;;73.15;17.42;;;10.70;99.90;;;;;;5036510;28;20236;-86
2022/09/27 03:38:06;;;;;;;72.25;17.23;;;10.70;99.90;;;;;;5036565;28;20197;-86
2022/09/27 03:40:32;;;;;;;70.40;17.53;;;10.70;99.90;;;;;;5036205;28;20244;-86
2022/09/27 03:42:58;;;;;;;71.47;21.20;;;10.70;99.90;;;;;;5036519;28;20699;-86
2022/09/27 03:45:23;;;;;;;70.70;16.97;;;10.70;99.90;;;;;;5036289;28;20164;-86
2022/09/27 03:47:49;;;;;;;70.63;17.57;;;10.70;99.90;;;;;;5036140;28;20183;-86
2022/09/27 03:50:15;;;;;;;73.23;21.57;;;10.60;99.90;;;;;;5036786;28;20792;-87
2022/09/27 03:52:42;;;;;;;71.07;18.67;;;10.60;99.90;;;;;;5036958;28;20442;-86
2022/09/27 03:55:09;;;;;;;70.22;18.55;;;10.60;99.90;;;;;;5036012;28;20234;-86
2022/09/27 03:57:35;;;;;;;70.35;16.08;;;10.60;99.90;;;;;;5018222;28;20624;-86
2022/09/27 04:00:01;;;;;;;72.50;20.40;;;10.60;99.90;;;;;;5035940;28;20224;-86
2022/09/27 04:02:27;;;;;;;71.07;17.53;;;10.50;99.90;;;;;;5018613;28;20542;-86
2022/09/27 04:04:53;;;;;;;70.10;17.02;;;10.50;99.90;;;;;;5036444;28;20399;-86
2022/09/27 04:07:18;;;;;;;69.30;16.23;;;10.50;99.90;;;;;;5036112;28;20165;-86
2022/09/27 04:09:45;;;;;;;71.03;17.17;;;10.40;99.90;;;;;;5037107;28;20161;-86
2022/09/27 04:12:12;;;;;;;71.55;18.42;;;10.40;99.90;;;;;;5036343;28;20170;-85
2022/09/27 04:14:37;;;;;;;73.45;15.85;;;10.40;99.90;;;;;;5035735;28;20158;-86
2022/09/27 04:17:03;;;;;;;72.07;16.73;;;10.40;99.90;;;;;;5035633;28;20215;-85
2022/09/27 04:19:29;;;;;;;73.07;19.17;;;10.40;99.90;;;;;;5018727;28;20197;-86
2022/09/27 04:21:54;;;;;;;71.10;17.73;;;10.30;99.90;;;;;;5035549;28;20168;-86
2022/09/27 04:24:20;;;;;;;70.83;17.90;;;10.30;99.90;;;;;;5035553;28;20220;-85
2022/09/27 04:26:48;;;;;;;71.93;17.07;;;10.30;99.90;;;;;;5036831;28;20533;-86
2022/09/27 04:29:15;;;;;;;70.28;18.20;;;10.20;99.90;;;;;;5039478;28;20185;-85
2022/09/27 04:31:43;;;;;;;72.25;20.23;;;10.20;99.90;;;;;;5039409;28;20652;-85
2022/09/27 04:34:09;;;;;;;73.82;21.00;;;10.20;99.90;;;;;;5021112;28;20247;-85
2022/09/27 04:36:38;;;;;;;71.05;21.00;;;10.10;99.90;;;;;;5021346;28;20184;-86
2022/09/27 04:39:07;;;;;;;70.10;21.35;;;10.10;99.90;;;;;;5022690;28;20679;-86
2022/09/27 04:41:34;;;;;;;70.45;18.33;;;10.10;99.90;;;;;;5039662;28;20167;-86
2022/09/27 04:44:00;;;;;;;69.82;20.45;;;10.10;99.90;;;;;;5040659;28;20158;-85
2022/09/27 04:46:30;;;;;;;76.10;21.50;;;10.10;99.90;;;;;;5021517;28;20693;-85
2022/09/27 04:48:57;;;;;;;70.13;17.50;;;10.10;99.90;;;;;;5039117;28;20420;-86
2022/09/27 04:51:22;;;;;;;73.20;23.13;;;10.10;99.90;;;;;;5040679;28;20169;-86
2022/09/27 04:53:48;;;;;;;69.67;17.30;;;10.10;99.90;;;;;;5021715;28;20226;-85
2022/09/27 04:56:17;;;;;;;70.10;20.50;;;10.10;99.90;;;;;;5102645;22;20247;-84
2022/09/27 04:58:52;;;;;;;72.13;21.27;;;10.10;99.90;;;;;;5041668;28;20185;-84
2022/09/27 05:01:18;;;;;;;74.00;23.23;;;10.10;99.90;;;;;;5041805;28;20141;-85
2022/09/27 05:03:43;;;;;;;71.80;20.07;;;10.10;99.90;;;;;;5041492;28;20169;-84
2022/09/27 05:06:09;;;;;;;71.97;18.67;;;10.10;99.90;;;;;;5024014;28;20408;-85
2022/09/27 05:08:35;;;;;;;73.80;17.83;;;10.00;99.90;;;;;;5022703;28;20424;-84
2022/09/27 05:11:06;;;;;;;71.47;23.23;;;10.00;99.90;;;;;;5041369;28;20393;-84
2022/09/27 05:13:34;;;;;;;69.97;15.82;;;10.00;99.90;;;;;;5023025;28;20165;-85
2022/09/27 05:16:04;;;;;;;71.05;18.52;;;10.00;99.90;;;;;;5024305;28;20653;-84
2022/09/27 05:18:30;;;;;;;69.97;18.48;;;10.10;99.90;;;;;;5041860;28;20215;-85
2022/09/27 05:20:58;;;;;;;71.87;16.97;;;10.00;99.90;;;;;;5024276;28;20203;-85
2022/09/27 05:23:25;;;;;;;72.55;21.48;;;10.00;99.90;;;;;;5023819;28;20530;-85
2022/09/27 05:25:54;;;;;;;68.57;15.10;;;10.00;99.90;;;;;;5042051;28;20166;-84
2022/09/27 05:28:19;;;;;;;69.50;17.42;;;10.00;99.90;;;;;;5028415;28;20276;-85
2022/09/27 05:30:45;;;;;;;71.80;16.30;;;10.00;99.90;;;;;;5030083;28;20166;-85
2022/09/27 05:33:11;;;;;;;68.37;16.67;;;10.00;99.90;;;;;;5028331;28;20188;-85
2022/09/27 05:35:39;;;;;;;72.07;17.83;;;10.00;99.90;;;;;;5027872;28;20215;-85
2022/09/27 05:38:04;;;;;;;71.65;22.30;;;10.00;99.90;;;;;;5026125;28;20189;-85
2022/09/27 05:40:30;;;;;;;71.30;20.27;;;10.00;99.90;;;;;;5026506;28;20216;-85
2022/09/27 05:42:56;;;;;;;70.30;19.00;;;10.00;99.90;;;;;;5044153;28;20168;-85
2022/09/27 05:45:24;;;;;;;68.10;15.97;;;9.90;99.90;;;;;;5026455;28;20161;-85
2022/09/27 05:47:54;;;;;;;70.05;19.58;;;9.90;99.90;;;;;;5043746;28;20269;-85
2022/09/27 05:50:20;;;;;;;68.57;18.27;;;10.00;99.90;;;;;;5025862;28;20560;-85
2022/09/27 05:52:46;;;;;;;77.27;21.20;;;9.90;99.90;;;;;;5044385;28;20228;-85
2022/09/27 05:55:12;;;;;;;74.30;20.05;;;9.90;99.90;;;;;;5044233;28;20412;-85
2022/09/27 05:57:38;;;;;;;70.10;19.20;;;10.00;99.90;;;;;;5044461;28;20185;-85
2022/09/27 06:00:04;;;;;;;72.47;20.47;;;10.00;99.90;;;;;;5025807;28;20221;-85
2022/09/27 06:02:29;;;;;;;69.68;16.50;;;10.00;99.90;;;;;;5025909;28;20165;-85
2022/09/27 06:04:55;;;;;;;75.77;20.93;;;10.00;99.90;;;;;;5026241;28;20165;-84
2022/09/27 06:07:21;;;;;;;69.90;19.10;;;10.10;99.90;;;;;;5025840;28;20169;-85
2022/09/27 06:09:47;;;;;;;72.83;21.03;;;10.10;99.90;;;;;;5042707;28;20184;-85
2022/09/27 06:12:13;;;;;;;71.20;18.10;;;10.10;99.90;;;;;;5025069;28;20177;-85
2022/09/27 06:14:39;;;;;;;75.30;23.05;;;10.10;99.90;;;;;;5025444;28;20176;-85
2022/09/27 06:17:05;;;;;;;71.43;19.77;;;10.20;99.90;;;;;;5041864;28;20169;-84
2022/09/27 06:19:31;;;;;;;73.90;23.47;;;10.20;99.90;;;;;;5041660;28;20196;-85
2022/09/27 06:22:02;;;;;;;70.27;20.13;;;10.30;99.90;;;;;;5024147;28;20408;-86
2022/09/27 06:24:28;;;;;;;75.50;27.40;;;10.30;99.90;;;;;;5024478;28;20251;-85
2022/09/27 06:26:53;;;;;;;70.17;18.23;;;10.30;99.90;;;;;;5041092;28;20626;-85
2022/09/27 06:29:19;;;;;;;73.07;21.10;;;10.30;99.90;;;;;;5041388;28;20188;-85
2022/09/27 06:31:45;;;;;;;72.27;24.27;;;10.30;99.90;;;;;;5041301;28;20172;-85
2022/09/27 06:34:14;;;;;;;83.57;43.77;;;10.40;99.90;;;;;;5024212;28;20176;-85
2022/09/27 06:36:39;;;;;;;78.28;32.95;;;10.40;99.90;;;;;;5023979;28;20174;-85
2022/09/27 06:39:05;;;;;;;72.77;24.13;;;10.40;99.90;;;;;;5022856;28;20223;-85
2022/09/27 06:41:34;;;;;;;70.93;23.40;;;10.50;99.90;;;;;;5040954;28;20161;-85
2022/09/27 06:44:01;;;;;;;70.80;25.02;;;10.40;99.90;;;;;;5022914;28;20412;-85
2022/09/27 06:46:27;;;;;;;76.35;27.75;;;10.40;99.90;;;;;;5027518;28;20165;-86
2022/09/27 06:48:53;;;;;;;73.18;29.58;;;10.50;99.90;;;;;;5025906;28;20584;-87
2022/09/27 06:51:19;;;;;;;71.20;21.33;;;10.50;99.90;;;;;;5042914;28;20164;-86
2022/09/27 06:53:45;;;;;;;75.33;26.77;;;10.50;99.90;;;;;;5024901;28;20177;-86
2022/09/27 06:56:10;;;;;;;75.70;21.73;;;10.50;99.90;;;;;;5024759;28;20200;-85
2022/09/27 07:01:20;;;;;;;67.85;12.68;;;10.60;99.90;;;;;;5042005;28;20157;-85
2022/09/27 07:03:50;;;;;;;71.40;23.10;;;10.50;99.90;;;;;;5041124;28;20166;-85
2022/09/27 07:06:19;;;;;;;78.15;17.42;;;10.50;99.90;;;;;;5040817;28;20221;-85
2022/09/27 07:08:50;;;;;;;68.72;13.20;;;10.60;99.90;;;;;;5022841;28;20193;-85
2022/09/27 07:11:17;;;;;;;72.68;14.88;;;10.60;99.90;;;;;;5023105;28;20157;-84
2022/09/27 07:13:43;;;;;;;66.57;11.85;;;10.60;99.90;;;;;;5024605;28;20185;-86
2022/09/27 07:16:12;;;;;;;67.50;13.80;;;10.70;99.90;;;;;;5044551;28;20160;-86
2022/09/27 07:18:40;;;;;;;69.43;11.40;;;10.80;99.90;;;;;;5045246;28;20507;-86
2022/09/27 07:21:09;;;;;;;68.57;10.15;;;10.80;99.90;;;;;;5026601;28;20165;-86
2022/09/27 07:23:36;;;;;;;68.43;10.93;;;10.90;99.90;;;;;;5026310;28;20237;-85
2022/09/27 07:26:05;;;;;;;72.60;13.45;;;10.90;99.90;;;;;;5044569;28;20248;-85
2022/09/27 07:28:32;;;;;;;67.43;14.68;;;11.00;99.90;;;;;;5044881;28;20193;-85
2022/09/27 07:30:58;;;;;;;68.68;13.00;;;11.10;99.90;;;;;;5026372;28;20260;-86
2022/09/27 07:33:24;;;;;;;68.07;15.17;;;11.10;99.90;;;;;;5025740;28;20259;-86
2022/09/27 07:35:49;;;;;;;66.85;11.02;;;11.00;99.90;;;;;;5025086;28;20942;-86
2022/09/27 07:38:24;;;;;;;69.00;13.07;;;11.00;99.90;;;;;;5024975;28;20196;-86
2022/09/27 07:40:50;;;;;;;67.88;13.50;;;10.90;99.90;;;;;;5025488;28;20188;-85
2022/09/27 07:43:16;;;;;;;68.07;12.57;;;10.90;99.90;;;;;;5041597;28;20206;-85
2022/09/27 07:45:42;;;;;;;67.95;15.35;;;10.90;99.90;;;;;;5024284;28;20172;-85
2022/09/27 07:48:12;;;;;;;66.87;13.70;;;10.80;99.90;;;;;;5024511;28;20188;-85
2022/09/27 07:50:37;;;;;;;70.10;13.40;;;10.90;99.90;;;;;;5024343;28;20400;-86
2022/09/27 07:53:04;;;;;;;68.80;14.07;;;10.80;99.90;;;;;;5042612;28;20175;-84
2022/09/27 07:55:30;;;;;;;67.70;15.27;;;10.90;99.90;;;;;;5041416;28;20184;-85
2022/09/27 07:58:04;;;;;;;67.80;10.18;;;10.90;99.90;;;;;;5042463;28;20607;-85
2022/09/27 08:00:30;;;;;;;65.55;9.85;;;11.00;99.90;;;;;;5042563;28;20280;-84
2022/09/27 08:02:55;;;;;;;65.17;9.40;;;11.00;99.90;;;;;;5028618;28;20201;-86
2022/09/27 08:05:21;;;;;;;67.67;9.07;;;11.10;99.90;;;;;;5028416;28;20441;-85
2022/09/27 08:07:47;;;;;;;65.60;6.90;;;11.20;99.90;;;;;;5027888;28;20248;-85
2022/09/27 08:10:13;;;;;;;64.50;6.03;;;11.20;99.90;;;;;;5027520;28;20178;-85
2022/09/27 08:12:38;;;;;;;63.77;5.73;;;11.30;99.90;;;;;;5046040;28;20169;-85
2022/09/27 08:15:04;;;;;;;67.40;8.33;;;11.30;99.90;;;;;;5045982;28;20192;-86
2022/09/27 08:17:31;;;;;;;64.80;7.28;;;11.40;99.90;;;;;;5027583;28;20189;-85
2022/09/27 08:19:57;;;;;;;64.78;8.13;;;11.40;99.90;;;;;;5046121;28;20219;-86
2022/09/27 08:22:23;;;;;;;64.80;8.30;;;11.40;99.90;;;;;;5048374;28;20170;-86
2022/09/27 08:24:49;;;;;;;66.10;8.50;;;11.40;99.90;;;;;;5050131;28;20161;-86
2022/09/27 08:27:16;;;;;;;66.30;9.57;;;11.30;99.90;;;;;;5030911;28;20189;-86
2022/09/27 08:29:42;;;;;;;67.30;9.38;;;11.40;99.90;;;;;;5049106;28;20173;-85
2022/09/27 08:32:12;;;;;;;66.57;8.97;;;11.50;99.90;;;;;;5046955;28;20204;-86
2022/09/27 08:34:38;;;;;;;65.63;6.25;;;11.50;99.90;;;;;;5047372;28;20147;-86
2022/09/27 08:37:04;;;;;;;65.50;10.00;;;11.50;99.90;;;;;;5029463;28;20184;-86
2022/09/27 08:39:33;;;;;;;66.30;12.63;;;11.50;99.90;;;;;;5046423;28;20530;-85
2022/09/27 08:42:26;;;;;;;68.60;11.80;;;11.60;99.90;;;;;;5029262;28;20500;-85
2022/09/27 08:45:30;;;;;;;67.35;15.30;;;11.70;99.90;;;;;;5046459;28;20152;-84
2022/09/27 08:48:03;;;;;;;71.40;13.40;;;11.80;99.90;;;;;;5025513;28;20260;-85
2022/09/27 08:50:34;;;;;;;68.78;11.82;;;11.80;99.90;;;;;;5028010;28;20185;-85
2022/09/27 08:53:16;;;;;;;66.18;8.90;;;11.80;99.90;;;;;;5028288;28;20641;-85
2022/09/27 08:55:52;;;;;;;67.13;9.48;;;11.80;99.90;;;;;;5028481;28;20203;-84
2022/09/27 08:58:26;;;;;;;66.68;9.82;;;12.00;99.90;;;;;;5028582;28;20191;-85
2022/09/27 09:01:05;;;;;;;68.55;9.57;;;12.10;99.90;;;;;;5046526;28;20241;-86
2022/09/27 09:03:35;;;;;;;71.85;12.40;;;12.10;99.90;;;;;;5048935;28;20138;-85
2022/09/27 09:06:44;;;;;;;69.95;8.98;;;12.30;99.90;;;;;;5049129;28;20182;-85
2022/09/27 09:09:40;;;;;;;65.75;9.52;;;12.50;99.90;;;;;;4990413;28;20281;-85
2022/09/27 09:12:46;;;;;;;66.00;9.88;;;12.80;99.90;;;;;;5007493;28;20643;-85
2022/09/27 09:15:32;;;;;;;65.85;7.18;;;13.10;99.90;;;;;;5046204;28;20181;-85
2022/09/27 09:18:40;;;;;;;64.95;4.00;;;13.40;99.90;;;;;;5046952;28;20219;-84
2022/09/27 09:21:15;;;;;;;63.60;3.95;;;13.50;99.90;;;;;;5046838;28;20545;-85
2022/09/27 09:24:05;;;;;;;66.53;4.27;;;13.50;99.90;;;;;;5029253;28;20161;-85
2022/09/27 09:26:55;;;;;;;64.30;4.82;;;13.40;99.90;;;;;;5047799;28;20427;-84
2022/09/27 09:29:23;;;;;;;65.10;5.40;;;13.30;99.90;;;;;;5028486;28;20192;-84
2022/09/27 09:32:26;;;;;;;63.53;4.32;;;13.40;99.90;;;;;;5046390;28;20180;-85
2022/09/27 09:35:00;;;;;;;66.97;4.88;;;13.40;99.90;;;;;;5046708;28;20153;-84
2022/09/27 09:37:37;;;;;;;64.00;5.28;;;13.50;99.90;;;;;;5028593;28;20588;-85
2022/09/27 09:40:30;;;;;;;64.93;4.57;;;13.40;99.90;;;;;;5048146;28;20204;-84
2022/09/27 09:43:04;;;;;;;63.53;4.88;;;13.30;99.90;;;;;;5028840;28;20216;-85
2022/09/27 09:45:44;;;;;;;64.85;5.43;;;13.10;99.90;;;;;;5027639;28;20164;-84
2022/09/27 09:48:45;;;;;;;64.13;5.30;;;13.00;99.90;;;;;;5027923;28;20185;-84
2022/09/27 09:51:28;;;;;;;63.90;4.80;;;12.90;99.90;;;;;;5045253;28;20191;-83
2022/09/27 09:54:05;;;;;;;65.43;7.25;;;12.80;99.90;;;;;;5028825;28;20161;-84
2022/09/27 09:56:44;;;;;;;65.28;6.95;;;12.70;99.90;;;;;;5027711;28;20525;-84
2022/09/27 09:59:19;;;;;;;65.22;6.75;;;12.80;99.90;;;;;;5046271;28;20267;-85
2022/09/27 10:01:47;;;;;;;65.20;6.35;;;12.90;99.90;;;;;;5031803;28;20187;-85
2022/09/27 10:04:26;;;;;;;64.90;6.70;;;13.00;99.90;;;;;;5030127;28;20165;-84
2022/09/27 10:06:55;;;;;;;64.97;5.95;;;13.00;99.90;;;;;;5047729;28;20142;-84
2022/09/27 10:09:25;;;;;;;65.65;6.32;;;13.00;99.90;;;;;;5047199;28;20544;-84
2022/09/27 10:11:51;;;;;;;65.10;6.03;;;13.00;99.90;;;;;;5029024;28;20162;-84
2022/09/27 10:14:19;;;;;;;64.75;5.40;;;13.10;99.90;;;;;;5046754;28;20169;-85
2022/09/27 10:16:53;;;;;;;67.28;6.78;;;13.00;99.90;;;;;;5047224;28;20644;-84
2022/09/27 10:19:28;;;;;;;65.70;7.28;;;12.90;99.90;;;;;;5029267;28;20201;-84
2022/09/27 10:22:10;;;;;;;64.35;6.47;;;13.00;99.90;;;;;;5029260;28;20164;-83
2022/09/27 10:24:57;;;;;;;65.82;7.65;;;13.00;99.90;;;;;;5027944;28;20158;-84
2022/09/27 10:27:27;;;;;;;65.18;6.20;;;13.10;99.90;;;;;;5046887;28;20192;-83
2022/09/27 10:29:58;;;;;;;67.25;6.20;;;13.20;99.90;;;;;;5046008;28;20169;-83
2022/09/27 10:32:31;;;;;;;63.83;5.72;;;13.20;99.90;;;;;;5045335;28;20161;-84
2022/09/27 10:35:28;;;;;;;65.78;7.75;;;13.00;99.90;;;;;;5028146;28;20169;-83
2022/09/27 10:38:22;;;;;;;65.72;7.97;;;13.00;99.90;;;;;;5045214;28;20268;-84
2022/09/27 10:40:54;;;;;;;68.70;6.78;;;13.10;99.90;;;;;;5045316;28;20181;-84
2022/09/27 10:43:34;;;;;;;65.00;6.95;;;13.30;99.90;;;;;;5044818;28;20146;-84
2022/09/27 10:46:12;;;;;;;67.30;8.27;;;13.60;99.00;;;;;;5045297;28;20158;-84
2022/09/27 10:48:40;;;;;;;67.07;7.82;;;13.70;94.30;;;;;;5028224;28;20499;-85
2022/09/27 10:51:28;;;;;;;65.50;6.83;;;13.70;92.40;;;;;;5048220;28;20168;-83
2022/09/27 10:53:59;;;;;;;65.60;6.60;;;13.80;95.20;;;;;;5029207;28;20875;-85
2022/09/27 10:56:34;;;;;;;66.10;6.47;;;13.70;92.00;;;;;;5052591;22;20540;-85
2022/09/27 10:59:04;;;;;;;68.37;7.63;;;13.70;92.40;;;;;;5052289;28;20419;-85
2022/09/27 11:01:52;;;;;;;66.30;8.80;;;13.70;94.90;;;;;;5048807;28;20403;-85
2022/09/27 11:04:22;;;;;;;67.55;7.38;;;13.80;92.30;;;;;;5047678;28;20376;-85
2022/09/27 11:06:48;;;;;;;66.05;8.77;;;13.70;85.90;;;;;;5047130;28;20193;-84
2022/09/27 11:09:25;;;;;;;67.37;6.77;;;13.60;89.20;;;;;;5045745;28;20208;-84
2022/09/27 11:12:05;;;;;;;66.57;8.75;;;13.50;84.20;;;;;;5030097;28;20479;-85
2022/09/27 11:14:31;;;;;;;64.78;6.30;;;13.50;88.50;;;;;;5046909;28;20153;-85
2022/09/27 11:17:09;;;;;;;67.00;7.83;;;13.50;90.30;;;;;;5047557;28;20161;-85
2022/09/27 11:19:52;;;;;;;66.53;7.53;;;13.60;91.20;;;;;;5046906;28;20432;-85
2022/09/27 11:22:27;;;;;;;67.97;7.38;;;13.50;92.10;;;;;;5047383;28;20177;-85
2022/09/27 11:25:16;;;;;;;66.70;9.53;;;13.60;92.30;;;;;;5047260;28;20160;-84
2022/09/27 11:28:19;;;;;;;65.97;8.93;;;13.60;99.90;;;;;;5046598;28;20444;-84
2022/09/27 11:31:38;;;;;;;67.68;9.18;;;13.70;97.50;;;;;;5029765;28;20414;-85
2022/09/27 11:34:23;;;;;;;67.10;7.53;;;13.90;92.40;;;;;;4989552;28;20184;-85
2022/09/27 11:37:14;;;;;;;66.60;7.10;;;14.00;91.90;;;;;;5047249;28;20394;-84
2022/09/27 11:39:57;;;;;;;65.73;6.37;;;14.00;90.60;;;;;;5046939;28;20442;-84
2022/09/27 11:42:59;;;;;;;67.63;7.27;;;13.90;85.80;;;;;;5045091;28;20384;-84
2022/09/27 11:46:03;;;;;;;66.87;7.03;;;13.90;90.50;;;;;;5047565;28;20376;-84
2022/09/27 11:48:49;;;;;;;66.20;6.67;;;14.00;85.80;;;;;;4967253;28;20435;-84
2022/09/27 11:51:31;;;;;;;66.17;7.73;;;14.10;87.40;;;;;;5043026;28;20903;-85
2022/09/27 11:53:59;;;;;;;66.70;6.35;;;14.10;79.80;;;;;;5047828;28;20376;-85
2022/09/27 11:57:03;;;;;;;67.10;5.97;;;14.20;78.30;;;;;;5029606;28;20181;-84
2022/09/27 11:59:29;;;;;;;68.57;6.80;;;14.20;80.00;;;;;;4967388;29;20465;-84
2022/09/27 12:02:21;;;;;;;68.80;5.43;;;14.20;86.50;;;;;;4966425;29;20487;-85
2022/09/27 12:05:18;;;;;;;66.57;4.83;;;14.30;68.30;;;;;;5019098;28;20245;-84
2022/09/27 12:08:21;;;;;;;65.67;5.23;;;14.20;71.00;;;;;;5017736;28;20595;-84
2022/09/27 12:10:52;;;;;;;65.40;5.40;;;14.20;73.90;;;;;;5047462;28;20431;-84
2022/09/27 12:13:35;;;;;;;65.10;4.70;;;14.00;83.50;;;;;;5045420;28;20415;-84
2022/09/27 12:16:02;;;;;;;68.27;6.47;;;13.80;75.20;;;;;;5047484;28;20380;-85
2022/09/27 12:18:37;;;;;;;66.40;7.20;;;13.60;88.80;;;;;;5046278;28;20451;-85
2022/09/27 12:21:07;;;;;;;68.57;10.33;;;13.40;99.90;;;;;;5045034;28;20443;-85
2022/09/27 12:23:44;;;;;;;65.90;8.40;;;13.30;99.90;;;;;;5044573;28;20419;-85
2022/09/27 12:26:29;;;;;;;67.47;9.50;;;13.10;99.90;;;;;;5044556;28;20760;-85
2022/09/27 12:29:12;;;;;;;66.75;12.10;;;12.90;99.90;;;;;;5044751;28;20447;-85
2022/09/27 12:32:09;;;;;;;65.50;10.00;;;12.90;99.90;;;;;;5026697;28;20525;-85
2022/09/27 12:35:18;;;;;;;65.95;8.77;;;13.00;99.90;;;;;;5044324;28;20388;-85
2022/09/27 12:38:08;;;;;;;66.03;9.00;;;13.30;99.90;;;;;;5042340;28;20185;-85
2022/09/27 12:40:49;;;;;;;67.38;16.27;;;13.30;99.90;;;;;;5028306;28;20452;-85
2022/09/27 12:43:26;;;;;;;66.00;8.30;;;13.30;99.90;;;;;;5043791;28;20150;-85
2022/09/27 12:46:16;;;;;;;69.88;9.32;;;13.30;99.90;;;;;;5042853;28;20146;-85
2022/09/27 12:48:42;;;;;;;65.47;10.40;;;13.40;99.90;;;;;;5045219;28;20181;-85
2022/09/27 12:51:11;;;;;;;67.40;8.67;;;13.60;99.90;;;;;;5046551;28;20400;-85
2022/09/27 12:54:31;;;;;;;67.00;9.33;;;13.70;99.90;;;;;;5047517;28;20532;-85
2022/09/27 12:57:20;;;;;;;65.07;8.23;;;13.90;99.90;;;;;;4967676;28;20435;-85
2022/09/27 13:00:13;;;;;;;65.30;8.03;;;14.00;99.90;;;;;;4967054;29;20473;-85
2022/09/27 13:03:07;;;;;;;65.27;8.97;;;14.20;99.90;;;;;;5035011;28;20419;-85
2022/09/27 13:06:01;;;;;;;65.10;5.82;;;14.10;99.90;;;;;;5048844;28;20396;-85